< < Back
Terminal Aerodrome Forecast


Current Version              Previous Versions:   1  2  3  4  5  6  7  8  9  

Terminal Aerodrome Forecast

907
FTUS42 KCHS 261734
TAFSAV
TAF
KSAV 261734Z 2618/2718 07010G16KT P6SM SCT050
     FM262200 12009KT P6SM FEW050
     FM270100 VRB03KT P6SM SKC
     FM271500 09010KT P6SM SCT040=

Latest METAR

491
SAUS80 KWBC 272000 RRA
MTRSAV
METAR KSAV 271953Z 09014KT 10SM SCT039 33/21 A3004 RMK AO2 SLP171
T03330211


USA.gov is the U.S. government's official web portal to all federal, state and local government web resources and services.